Pagina principale
METAR-TAF:

METAR-TAF

Aeroporti :

Colmar, Francia

latitudine: 48-06-37N, longitudine: 7-21-33E, altezza: 191 m

Osservazione

Il bollettino è stato emesso 20 minuti fa, alle 13:30 UTC
Vento 2 kt da est/sud-est
Temperature 7°C
Umidità 70%
Pressione 1017 hPa
Visibilità 10 km o più
nessuna nube inferiore a 1500 m e nessun cumulonembo

METAR: LFGA 061330Z AUTO 12002KT CAVOK 07/02 Q1017

Ora: 14:50 (13:50 UTC)


TAF: mancante

Osservazioni e previsioni meteorologiche di più di 4000 aeroporti (messaggi METAR e TAF).

Le stazioni disponibili sono rappresentate dai dischi gialli e rossi sulla carta.

Puntare il mouse per vedere il nome della stazione.

Clicca sopra per visualizzare le osservazioni e previsioni meteorologiche.

Per cambiare la mappa : fare clic sui pulsanti verdi con una croce nera per ingrandire, il pulsante verde con un trattino per diminuire, o sulla freccia verde per le mappe adiacenti.


METAR-TAF: